sensor_id;sensor_type;location;lat;lon;timestamp;pressure;altitude;pressure_sealevel;temperature;humidity
63009;BME280;49099;28.428;-16.488;2023-03-23T00:02:25;98357.09;;;18.47;66.52
63009;BME280;49099;28.428;-16.488;2023-03-23T00:04:51;98353.44;;;18.51;65.99
63009;BME280;49099;28.428;-16.488;2023-03-23T00:07:20;98360.38;;;18.61;65.69
63009;BME280;49099;28.428;-16.488;2023-03-23T00:09:54;98363.41;;;18.68;65.18
63009;BME280;49099;28.428;-16.488;2023-03-23T00:12:21;98353.59;;;18.63;64.55
63009;BME280;49099;28.428;-16.488;2023-03-23T00:15:07;98361.19;;;18.61;64.70
63009;BME280;49099;28.428;-16.488;2023-03-23T00:17:39;98359.91;;;18.59;64.41
63009;BME280;49099;28.428;-16.488;2023-03-23T00:20:06;98358.19;;;18.54;64.29
63009;BME280;49099;28.428;-16.488;2023-03-23T00:22:33;98354.53;;;18.50;64.10
63009;BME280;49099;28.428;-16.488;2023-03-23T00:25:06;98359.31;;;18.45;64.25
63009;BME280;49099;28.428;-16.488;2023-03-23T00:27:34;98355.03;;;18.44;64.37
63009;BME280;49099;28.428;-16.488;2023-03-23T00:30:00;98353.94;;;18.45;64.38
63009;BME280;49099;28.428;-16.488;2023-03-23T00:32:26;98362.16;;;18.40;64.44
63009;BME280;49099;28.428;-16.488;2023-03-23T00:34:57;98373.69;;;18.40;65.00
63009;BME280;49099;28.428;-16.488;2023-03-23T00:37:26;98365.94;;;18.38;65.13
63009;BME280;49099;28.428;-16.488;2023-03-23T00:39:52;98362.94;;;18.40;65.55
63009;BME280;49099;28.428;-16.488;2023-03-23T00:42:22;98359.16;;;18.41;65.37
63009;BME280;49099;28.428;-16.488;2023-03-23T00:44:48;98345.72;;;18.41;65.47
63009;BME280;49099;28.428;-16.488;2023-03-23T00:47:15;98341.13;;;18.42;65.42
63009;BME280;49099;28.428;-16.488;2023-03-23T00:49:43;98331.81;;;18.39;65.58
63009;BME280;49099;28.428;-16.488;2023-03-23T00:52:09;98326.91;;;18.41;65.54
63009;BME280;49099;28.428;-16.488;2023-03-23T00:54:36;98319.31;;;18.43;65.46
63009;BME280;49099;28.428;-16.488;2023-03-23T00:57:04;98319.31;;;18.43;65.84
63009;BME280;49099;28.428;-16.488;2023-03-23T00:59:30;98313.00;;;18.48;65.90
63009;BME280;49099;28.428;-16.488;2023-03-23T01:01:56;98315.38;;;18.49;65.84
63009;BME280;49099;28.428;-16.488;2023-03-23T01:04:22;98314.91;;;18.47;65.61
63009;BME280;49099;28.428;-16.488;2023-03-23T01:06:49;98309.88;;;18.37;65.67
63009;BME280;49099;28.428;-16.488;2023-03-23T01:09:16;98312.88;;;18.35;66.03
63009;BME280;49099;28.428;-16.488;2023-03-23T01:11:45;98311.13;;;18.40;65.42
63009;BME280;49099;28.428;-16.488;2023-03-23T01:14:13;98313.97;;;18.43;65.50
63009;BME280;49099;28.428;-16.488;2023-03-23T01:16:40;98298.34;;;18.45;65.48
63009;BME280;49099;28.428;-16.488;2023-03-23T01:19:07;98295.00;;;18.48;65.56
63009;BME280;49099;28.428;-16.488;2023-03-23T01:21:34;98287.41;;;18.50;65.55
63009;BME280;49099;28.428;-16.488;2023-03-23T01:24:00;98286.16;;;18.48;65.28
63009;BME280;49099;28.428;-16.488;2023-03-23T01:26:27;98281.72;;;18.43;65.32
63009;BME280;49099;28.428;-16.488;2023-03-23T01:28:54;98278.44;;;18.46;65.30
63009;BME280;49099;28.428;-16.488;2023-03-23T01:31:23;98273.19;;;18.50;64.84
63009;BME280;49099;28.428;-16.488;2023-03-23T01:33:49;98266.41;;;18.44;65.40
63009;BME280;49099;28.428;-16.488;2023-03-23T01:36:19;98266.72;;;18.42;65.42
63009;BME280;49099;28.428;-16.488;2023-03-23T01:38:47;98262.34;;;18.37;65.09
63009;BME280;49099;28.428;-16.488;2023-03-23T01:41:14;98257.47;;;18.31;64.61
63009;BME280;49099;28.428;-16.488;2023-03-23T01:44:04;98249.56;;;18.26;64.58
63009;BME280;49099;28.428;-16.488;2023-03-23T01:46:32;98243.88;;;18.19;64.65
63009;BME280;49099;28.428;-16.488;2023-03-23T01:49:11;98235.38;;;18.17;64.95
63009;BME280;49099;28.428;-16.488;2023-03-23T01:51:46;98239.00;;;18.12;64.90
63009;BME280;49099;28.428;-16.488;2023-03-23T01:54:14;98249.13;;;18.15;65.41
63009;BME280;49099;28.428;-16.488;2023-03-23T01:59:32;98233.50;;;18.08;65.31
63009;BME280;49099;28.428;-16.488;2023-03-23T02:01:58;98241.22;;;18.10;65.56
63009;BME280;49099;28.428;-16.488;2023-03-23T02:04:27;98232.72;;;18.08;66.00
63009;BME280;49099;28.428;-16.488;2023-03-23T02:06:56;98221.00;;;18.13;66.09
63009;BME280;49099;28.428;-16.488;2023-03-23T02:09:26;98234.94;;;18.06;65.89
63009;BME280;49099;28.428;-16.488;2023-03-23T02:11:53;98229.72;;;18.01;66.18
63009;BME280;49099;28.428;-16.488;2023-03-23T02:14:20;98228.47;;;17.98;66.43
63009;BME280;49099;28.428;-16.488;2023-03-23T02:17:38;98232.53;;;18.04;66.55
63009;BME280;49099;28.428;-16.488;2023-03-23T02:23:46;98209.19;;;18.05;67.59
63009;BME280;49099;28.428;-16.488;2023-03-23T02:26:36;98194.97;;;18.04;67.89
63009;BME280;49099;28.428;-16.488;2023-03-23T02:35:19;98189.59;;;18.04;67.88
63009;BME280;49099;28.428;-16.488;2023-03-23T02:38:00;98188.22;;;17.98;68.07
63009;BME280;49099;28.428;-16.488;2023-03-23T02:40:31;98186.31;;;17.99;67.45
63009;BME280;49099;28.428;-16.488;2023-03-23T02:42:58;98190.25;;;18.01;66.31
63009;BME280;49099;28.428;-16.488;2023-03-23T02:45:27;98190.13;;;17.98;65.66
63009;BME280;49099;28.428;-16.488;2023-03-23T02:47:55;98196.25;;;17.90;65.77
63009;BME280;49099;28.428;-16.488;2023-03-23T02:50:27;98197.25;;;17.85;66.45
63009;BME280;49099;28.428;-16.488;2023-03-23T02:52:55;98198.50;;;17.88;66.66
63009;BME280;49099;28.428;-16.488;2023-03-23T02:55:24;98192.19;;;17.92;67.29
63009;BME280;49099;28.428;-16.488;2023-03-23T02:57:52;98202.13;;;17.92;67.21
63009;BME280;49099;28.428;-16.488;2023-03-23T03:00:19;98196.75;;;17.92;67.00
63009;BME280;49099;28.428;-16.488;2023-03-23T03:02:51;98173.22;;;17.97;66.88
63009;BME280;49099;28.428;-16.488;2023-03-23T03:05:35;98183.31;;;18.00;66.63
63009;BME280;49099;28.428;-16.488;2023-03-23T03:14:04;98167.56;;;17.90;67.11
63009;BME280;49099;28.428;-16.488;2023-03-23T03:16:47;98148.78;;;17.90;65.51
63009;BME280;49099;28.428;-16.488;2023-03-23T03:19:20;98156.03;;;17.90;65.12
63009;BME280;49099;28.428;-16.488;2023-03-23T03:21:52;98168.97;;;17.88;65.36
63009;BME280;49099;28.428;-16.488;2023-03-23T03:24:21;98149.88;;;17.89;65.40
63009;BME280;49099;28.428;-16.488;2023-03-23T03:26:51;98157.75;;;17.94;65.77
63009;BME280;49099;28.428;-16.488;2023-03-23T03:29:22;98163.25;;;18.06;65.17
63009;BME280;49099;28.428;-16.488;2023-03-23T03:31:51;98154.56;;;18.09;65.54
63009;BME280;49099;28.428;-16.488;2023-03-23T03:34:21;98161.34;;;18.16;65.00
63009;BME280;49099;28.428;-16.488;2023-03-23T03:36:51;98164.63;;;18.13;65.38
63009;BME280;49099;28.428;-16.488;2023-03-23T03:39:18;98172.69;;;18.21;65.20
63009;BME280;49099;28.428;-16.488;2023-03-23T03:41:46;98179.66;;;18.14;64.69
63009;BME280;49099;28.428;-16.488;2023-03-23T03:44:12;98195.94;;;18.08;65.37
63009;BME280;49099;28.428;-16.488;2023-03-23T03:46:38;98200.84;;;17.98;66.66
63009;BME280;49099;28.428;-16.488;2023-03-23T03:49:06;98207.94;;;17.94;68.66
63009;BME280;49099;28.428;-16.488;2023-03-23T03:51:33;98213.66;;;17.92;69.75
63009;BME280;49099;28.428;-16.488;2023-03-23T03:54:00;98221.38;;;17.94;69.32
63009;BME280;49099;28.428;-16.488;2023-03-23T03:56:27;98240.00;;;17.90;69.75
63009;BME280;49099;28.428;-16.488;2023-03-23T03:58:53;98245.06;;;17.92;69.71
63009;BME280;49099;28.428;-16.488;2023-03-23T04:01:21;98250.09;;;17.93;69.32
63009;BME280;49099;28.428;-16.488;2023-03-23T04:03:48;98248.06;;;17.90;69.36
63009;BME280;49099;28.428;-16.488;2023-03-23T04:06:15;98245.38;;;17.90;69.37
63009;BME280;49099;28.428;-16.488;2023-03-23T04:08:41;98240.50;;;17.84;69.82
63009;BME280;49099;28.428;-16.488;2023-03-23T04:11:09;98236.72;;;17.76;69.94
63009;BME280;49099;28.428;-16.488;2023-03-23T04:13:36;98234.97;;;17.71;70.34
63009;BME280;49099;28.428;-16.488;2023-03-23T04:16:02;98230.03;;;17.65;71.51
63009;BME280;49099;28.428;-16.488;2023-03-23T04:18:29;98219.94;;;17.62;71.71
63009;BME280;49099;28.428;-16.488;2023-03-23T04:20:58;98212.38;;;17.64;71.85
63009;BME280;49099;28.428;-16.488;2023-03-23T04:23:26;98216.00;;;17.68;72.03
63009;BME280;49099;28.428;-16.488;2023-03-23T04:25:53;98219.31;;;17.65;72.47
63009;BME280;49099;28.428;-16.488;2023-03-23T04:28:22;98222.94;;;17.69;72.10
63009;BME280;49099;28.428;-16.488;2023-03-23T04:30:50;98223.63;;;17.74;71.52
63009;BME280;49099;28.428;-16.488;2023-03-23T04:33:22;98228.19;;;17.83;71.10
63009;BME280;49099;28.428;-16.488;2023-03-23T04:35:51;98228.78;;;17.88;70.84
63009;BME280;49099;28.428;-16.488;2023-03-23T04:38:19;98217.44;;;17.91;70.41
63009;BME280;49099;28.428;-16.488;2023-03-23T04:40:50;98229.09;;;17.95;70.19
63009;BME280;49099;28.428;-16.488;2023-03-23T04:43:20;98216.13;;;17.97;69.83
63009;BME280;49099;28.428;-16.488;2023-03-23T04:45:57;98215.06;;;17.98;69.72
63009;BME280;49099;28.428;-16.488;2023-03-23T04:48:28;98215.69;;;17.95;69.25
63009;BME280;49099;28.428;-16.488;2023-03-23T04:50:55;98213.66;;;17.92;69.33
63009;BME280;49099;28.428;-16.488;2023-03-23T04:53:21;98216.13;;;17.97;68.62
63009;BME280;49099;28.428;-16.488;2023-03-23T04:55:47;98208.72;;;18.03;68.05
63009;BME280;49099;28.428;-16.488;2023-03-23T04:58:15;98212.69;;;18.05;68.57
63009;BME280;49099;28.428;-16.488;2023-03-23T05:00:41;98209.66;;;18.07;67.83
63009;BME280;49099;28.428;-16.488;2023-03-23T05:03:18;98212.03;;;18.08;67.58
63009;BME280;49099;28.428;-16.488;2023-03-23T05:05:45;98217.41;;;18.08;67.09
63009;BME280;49099;28.428;-16.488;2023-03-23T05:08:13;98227.19;;;18.04;66.86
63009;BME280;49099;28.428;-16.488;2023-03-23T05:10:39;98214.09;;;18.03;66.81
63009;BME280;49099;28.428;-16.488;2023-03-23T05:13:05;98211.25;;;18.08;66.80
63009;BME280;49099;28.428;-16.488;2023-03-23T05:15:32;98218.16;;;18.18;66.00
63009;BME280;49099;28.428;-16.488;2023-03-23T05:17:57;98225.56;;;18.21;66.04
63009;BME280;49099;28.428;-16.488;2023-03-23T05:20:23;98213.91;;;18.17;65.96
63009;BME280;49099;28.428;-16.488;2023-03-23T05:22:50;98227.78;;;18.19;66.32
63009;BME280;49099;28.428;-16.488;2023-03-23T05:25:17;98230.16;;;18.20;65.44
63009;BME280;49099;28.428;-16.488;2023-03-23T05:27:46;98232.22;;;18.15;65.27
63009;BME280;49099;28.428;-16.488;2023-03-23T05:30:19;98233.97;;;18.10;65.86
63009;BME280;49099;28.428;-16.488;2023-03-23T05:32:47;98228.75;;;18.14;65.92
63009;BME280;49099;28.428;-16.488;2023-03-23T05:35:17;98240.75;;;18.17;64.95
63009;BME280;49099;28.428;-16.488;2023-03-23T05:37:43;98254.47;;;18.24;64.87
63009;BME280;49099;28.428;-16.488;2023-03-23T05:40:11;98264.22;;;18.28;64.92
63009;BME280;49099;28.428;-16.488;2023-03-23T05:42:38;98268.19;;;18.31;64.92
63009;BME280;49099;28.428;-16.488;2023-03-23T05:45:08;98258.06;;;18.28;64.73
63009;BME280;49099;28.428;-16.488;2023-03-23T05:47:35;98267.53;;;18.34;65.11
63009;BME280;49099;28.428;-16.488;2023-03-23T05:50:00;98257.47;;;18.31;65.62
63009;BME280;49099;28.428;-16.488;2023-03-23T05:52:26;98260.63;;;18.24;65.63
63009;BME280;49099;28.428;-16.488;2023-03-23T05:54:53;98275.63;;;18.25;65.68
63009;BME280;49099;28.428;-16.488;2023-03-23T05:57:19;98267.25;;;18.27;66.02
63009;BME280;49099;28.428;-16.488;2023-03-23T05:59:47;98277.03;;;18.31;65.38
63009;BME280;49099;28.428;-16.488;2023-03-23T06:02:14;98291.91;;;18.29;65.78
63009;BME280;49099;28.428;-16.488;2023-03-23T06:04:40;98296.00;;;18.26;65.61
63009;BME280;49099;28.428;-16.488;2023-03-23T06:07:07;98291.59;;;18.22;65.81
63009;BME280;49099;28.428;-16.488;2023-03-23T06:09:33;98289.53;;;18.19;66.67
63009;BME280;49099;28.428;-16.488;2023-03-23T06:11:59;98296.63;;;18.23;67.02
63009;BME280;49099;28.428;-16.488;2023-03-23T06:14:25;98307.50;;;18.27;66.94
63009;BME280;49099;28.428;-16.488;2023-03-23T06:16:51;98306.72;;;18.26;66.96
63009;BME280;49099;28.428;-16.488;2023-03-23T06:19:17;98313.22;;;18.25;67.83
63009;BME280;49099;28.428;-16.488;2023-03-23T06:21:43;98318.88;;;18.32;67.33
63009;BME280;49099;28.428;-16.488;2023-03-23T06:24:09;98316.53;;;18.31;67.43
63009;BME280;49099;28.428;-16.488;2023-03-23T06:26:38;98316.53;;;18.31;67.67
63009;BME280;49099;28.428;-16.488;2023-03-23T06:29:05;98328.66;;;18.28;67.02
63009;BME280;49099;28.428;-16.488;2023-03-23T06:31:48;98321.72;;;18.27;67.32
63009;BME280;49099;28.428;-16.488;2023-03-23T06:34:16;98338.00;;;18.31;67.60
63009;BME280;49099;28.428;-16.488;2023-03-23T06:36:43;98342.25;;;18.32;67.26
63009;BME280;49099;28.428;-16.488;2023-03-23T06:39:10;98344.47;;;18.30;67.50
63009;BME280;49099;28.428;-16.488;2023-03-23T06:41:36;98342.91;;;18.29;67.67
63009;BME280;49099;28.428;-16.488;2023-03-23T06:44:02;98345.59;;;18.29;67.92
63009;BME280;49099;28.428;-16.488;2023-03-23T06:46:28;98339.91;;;18.22;68.11
63009;BME280;49099;28.428;-16.488;2023-03-23T06:48:55;98346.06;;;18.14;68.42
63009;BME280;49099;28.428;-16.488;2023-03-23T06:51:21;98341.97;;;18.07;68.78
63009;BME280;49099;28.428;-16.488;2023-03-23T06:53:47;98343.88;;;18.07;68.85
63009;BME280;49099;28.428;-16.488;2023-03-23T06:56:13;98337.84;;;18.01;68.89
63009;BME280;49099;28.428;-16.488;2023-03-23T06:58:39;98341.00;;;17.95;69.01
63009;BME280;49099;28.428;-16.488;2023-03-23T07:01:08;98338.97;;;17.83;68.92
63009;BME280;49099;28.428;-16.488;2023-03-23T07:03:35;98319.22;;;17.79;68.94
63009;BME280;49099;28.428;-16.488;2023-03-23T07:06:02;98325.22;;;17.85;68.60
63009;BME280;49099;28.428;-16.488;2023-03-23T07:08:29;98319.06;;;17.84;68.41
63009;BME280;49099;28.428;-16.488;2023-03-23T07:10:55;98324.44;;;17.84;68.64
63009;BME280;49099;28.428;-16.488;2023-03-23T07:13:22;98332.31;;;17.89;68.50
63009;BME280;49099;28.428;-16.488;2023-03-23T07:15:49;98326.47;;;17.96;68.68
63009;BME280;49099;28.428;-16.488;2023-03-23T07:18:16;98328.22;;;18.00;68.92
63009;BME280;49099;28.428;-16.488;2023-03-23T07:20:42;98341.50;;;18.05;68.75
63009;BME280;49099;28.428;-16.488;2023-03-23T07:23:08;98342.28;;;18.06;68.91
63009;BME280;49099;28.428;-16.488;2023-03-23T07:25:35;98337.72;;;18.06;68.62
63009;BME280;49099;28.428;-16.488;2023-03-23T07:28:03;98346.22;;;18.08;69.16
63009;BME280;49099;28.428;-16.488;2023-03-23T07:30:29;98345.13;;;18.09;69.64
63009;BME280;49099;28.428;-16.488;2023-03-23T07:32:56;98351.44;;;18.14;69.18
63009;BME280;49099;28.428;-16.488;2023-03-23T07:35:23;98350.47;;;18.18;69.67
63009;BME280;49099;28.428;-16.488;2023-03-23T07:37:49;98348.91;;;18.26;69.18
63009;BME280;49099;28.428;-16.488;2023-03-23T07:40:17;98353.47;;;18.34;69.03
63009;BME280;49099;28.428;-16.488;2023-03-23T07:42:45;98360.41;;;18.35;68.79
63009;BME280;49099;28.428;-16.488;2023-03-23T07:45:13;98357.72;;;18.26;69.21
63009;BME280;49099;28.428;-16.488;2023-03-23T07:47:39;98353.81;;;18.24;69.30
63009;BME280;49099;28.428;-16.488;2023-03-23T07:50:06;98350.66;;;18.22;69.34
63009;BME280;49099;28.428;-16.488;2023-03-23T07:52:34;98349.03;;;18.21;69.40
63009;BME280;49099;28.428;-16.488;2023-03-23T07:55:01;98370.06;;;18.19;69.53
63009;BME280;49099;28.428;-16.488;2023-03-23T07:57:29;98383.47;;;18.19;69.42
63009;BME280;49099;28.428;-16.488;2023-03-23T07:59:56;98388.22;;;18.22;69.61
63009;BME280;49099;28.428;-16.488;2023-03-23T08:02:23;98379.38;;;18.30;69.17
63009;BME280;49099;28.428;-16.488;2023-03-23T08:04:49;98362.16;;;18.31;69.33
63009;BME280;49099;28.428;-16.488;2023-03-23T08:07:17;98359.47;;;18.31;70.06
63009;BME280;49099;28.428;-16.488;2023-03-23T08:09:45;98359.97;;;18.24;70.73
63009;BME280;49099;28.428;-16.488;2023-03-23T08:12:12;98378.09;;;18.27;70.41
63009;BME280;49099;28.428;-16.488;2023-03-23T08:14:38;98380.16;;;18.30;70.49
63009;BME280;49099;28.428;-16.488;2023-03-23T08:17:06;98386.16;;;18.36;69.74
63009;BME280;49099;28.428;-16.488;2023-03-23T08:19:32;98394.53;;;18.43;69.69
63009;BME280;49099;28.428;-16.488;2023-03-23T08:22:05;98398.63;;;18.49;69.40
63009;BME280;49099;28.428;-16.488;2023-03-23T08:24:32;98394.22;;;18.53;69.77
63009;BME280;49099;28.428;-16.488;2023-03-23T08:26:59;98392.91;;;18.59;69.25
63009;BME280;49099;28.428;-16.488;2023-03-23T08:29:25;98396.09;;;18.61;69.19
63009;BME280;49099;28.428;-16.488;2023-03-23T08:31:52;98392.78;;;18.73;68.80
63009;BME280;49099;28.428;-16.488;2023-03-23T08:34:17;98392.28;;;18.80;68.42
63009;BME280;49099;28.428;-16.488;2023-03-23T08:36:43;98397.34;;;18.81;68.46
63009;BME280;49099;28.428;-16.488;2023-03-23T08:39:12;98404.00;;;18.84;68.45
63009;BME280;49099;28.428;-16.488;2023-03-23T08:41:40;98404.44;;;18.86;68.17
63009;BME280;49099;28.428;-16.488;2023-03-23T08:44:07;98411.25;;;18.92;67.96
63009;BME280;49099;28.428;-16.488;2023-03-23T08:46:34;98410.72;;;18.99;67.72
63009;BME280;49099;28.428;-16.488;2023-03-23T08:49:00;98415.31;;;18.98;68.02
63009;BME280;49099;28.428;-16.488;2023-03-23T08:51:26;98413.28;;;18.95;68.33
63009;BME280;49099;28.428;-16.488;2023-03-23T08:53:53;98400.78;;;18.99;68.50
63009;BME280;49099;28.428;-16.488;2023-03-23T08:56:20;98416.91;;;18.99;68.27
63009;BME280;49099;28.428;-16.488;2023-03-23T08:58:46;98422.28;;;18.99;68.47
63009;BME280;49099;28.428;-16.488;2023-03-23T09:01:12;98401.38;;;19.05;68.20
63009;BME280;49099;28.428;-16.488;2023-03-23T09:03:38;98403.59;;;19.11;67.22
63009;BME280;49099;28.428;-16.488;2023-03-23T09:06:08;98409.13;;;19.15;67.66
63009;BME280;49099;28.428;-16.488;2023-03-23T09:08:35;98407.03;;;19.20;67.40
63009;BME280;49099;28.428;-16.488;2023-03-23T09:11:03;98405.75;;;19.27;67.35
63009;BME280;49099;28.428;-16.488;2023-03-23T09:13:29;98419.03;;;19.32;66.99
63009;BME280;49099;28.428;-16.488;2023-03-23T09:15:55;98410.13;;;19.40;66.34
63009;BME280;49099;28.428;-16.488;2023-03-23T09:18:21;98405.03;;;19.47;66.23
63009;BME280;49099;28.428;-16.488;2023-03-23T09:20:49;98419.22;;;19.56;66.46
63009;BME280;49099;28.428;-16.488;2023-03-23T09:23:15;98412.59;;;19.62;66.13
63009;BME280;49099;28.428;-16.488;2023-03-23T09:25:42;98412.72;;;19.66;65.37
63009;BME280;49099;28.428;-16.488;2023-03-23T09:28:08;98415.22;;;19.71;65.90
63009;BME280;49099;28.428;-16.488;2023-03-23T09:30:35;98421.38;;;19.71;65.45
63009;BME280;49099;28.428;-16.488;2023-03-23T09:33:03;98426.78;;;19.71;65.25
63009;BME280;49099;28.428;-16.488;2023-03-23T09:35:31;98426.78;;;19.71;65.32
63009;BME280;49099;28.428;-16.488;2023-03-23T09:37:58;98432.44;;;19.79;65.14
63009;BME280;49099;28.428;-16.488;2023-03-23T09:48:58;98451.34;;;19.91;65.06
63009;BME280;49099;28.428;-16.488;2023-03-23T09:54:29;98455.81;;;19.87;65.43
63009;BME280;49099;28.428;-16.488;2023-03-23T09:56:58;98463.69;;;19.92;65.03
63009;BME280;49099;28.428;-16.488;2023-03-23T09:59:34;98470.00;;;19.96;64.67
63009;BME280;49099;28.428;-16.488;2023-03-23T10:02:28;98472.97;;;20.03;65.24
63009;BME280;49099;28.428;-16.488;2023-03-23T10:07:45;98487.56;;;20.02;65.64
63009;BME280;49099;28.428;-16.488;2023-03-23T10:10:13;98499.72;;;20.08;65.75
63009;BME280;49099;28.428;-16.488;2023-03-23T10:12:49;98489.06;;;20.12;65.57
63009;BME280;49099;28.428;-16.488;2023-03-23T10:15:26;98505.34;;;20.15;65.67
63009;BME280;49099;28.428;-16.488;2023-03-23T10:18:04;98512.34;;;20.16;65.23
63009;BME280;49099;28.428;-16.488;2023-03-23T10:20:46;98515.34;;;20.15;65.42
63009;BME280;49099;28.428;-16.488;2023-03-23T10:26:12;98513.09;;;20.25;65.42
63009;BME280;49099;28.428;-16.488;2023-03-23T10:28:41;98514.94;;;20.34;65.45
63009;BME280;49099;28.428;-16.488;2023-03-23T10:31:17;98524.75;;;20.29;66.24
63009;BME280;49099;28.428;-16.488;2023-03-23T10:33:48;98534.16;;;20.23;66.89
63009;BME280;49099;28.428;-16.488;2023-03-23T10:39:20;98535.75;;;20.24;66.29
63009;BME280;49099;28.428;-16.488;2023-03-23T10:41:49;98540.59;;;20.31;66.30
63009;BME280;49099;28.428;-16.488;2023-03-23T10:44:21;98542.03;;;20.28;66.08
63009;BME280;49099;28.428;-16.488;2023-03-23T10:49:18;98538.44;;;20.24;66.64
63009;BME280;49099;28.428;-16.488;2023-03-23T10:52:01;98547.94;;;20.22;66.36
63009;BME280;49099;28.428;-16.488;2023-03-23T10:54:37;98553.81;;;20.15;66.73
63009;BME280;49099;28.428;-16.488;2023-03-23T10:59:48;98549.44;;;20.11;67.09
63009;BME280;49099;28.428;-16.488;2023-03-23T11:02:17;98563.81;;;20.15;67.31
63009;BME280;49099;28.428;-16.488;2023-03-23T11:04:55;98569.47;;;20.22;67.50
63009;BME280;49099;28.428;-16.488;2023-03-23T11:07:27;98570.56;;;20.29;66.89
63009;BME280;49099;28.428;-16.488;2023-03-23T11:09:56;98566.56;;;20.36;66.48
63009;BME280;49099;28.428;-16.488;2023-03-23T11:12:24;98562.75;;;20.37;67.50
63009;BME280;49099;28.428;-16.488;2023-03-23T11:14:51;98568.59;;;20.39;67.16
63009;BME280;49099;28.428;-16.488;2023-03-23T11:17:23;98564.81;;;20.40;66.99
63009;BME280;49099;28.428;-16.488;2023-03-23T11:19:50;98558.31;;;20.41;66.52
63009;BME280;49099;28.428;-16.488;2023-03-23T11:22:27;98554.63;;;20.45;67.03
63009;BME280;49099;28.428;-16.488;2023-03-23T11:24:56;98546.41;;;20.42;67.02
63009;BME280;49099;28.428;-16.488;2023-03-23T11:27:25;98536.72;;;20.49;67.30
63009;BME280;49099;28.428;-16.488;2023-03-23T11:30:11;98536.00;;;20.61;67.36
63009;BME280;49099;28.428;-16.488;2023-03-23T11:32:44;98532.59;;;20.73;66.84
63009;BME280;49099;28.428;-16.488;2023-03-23T11:35:20;98535.66;;;20.83;66.60
63009;BME280;49099;28.428;-16.488;2023-03-23T11:37:50;98526.84;;;20.95;66.36
63009;BME280;49099;28.428;-16.488;2023-03-23T11:40:20;98532.81;;;21.01;66.39
63009;BME280;49099;28.428;-16.488;2023-03-23T11:45:24;98514.66;;;21.10;65.83
63009;BME280;49099;28.428;-16.488;2023-03-23T11:58:46;98510.22;;;21.26;63.87
63009;BME280;49099;28.428;-16.488;2023-03-23T12:01:19;98513.63;;;21.35;63.84
63009;BME280;49099;28.428;-16.488;2023-03-23T12:09:51;98489.41;;;21.72;62.22
63009;BME280;49099;28.428;-16.488;2023-03-23T12:15:38;98482.84;;;21.85;61.57
63009;BME280;49099;28.428;-16.488;2023-03-23T12:24:01;98480.16;;;21.73;62.19
63009;BME280;49099;28.428;-16.488;2023-03-23T12:26:37;98484.00;;;21.72;62.13
63009;BME280;49099;28.428;-16.488;2023-03-23T12:35:17;98472.63;;;22.03;61.48
63009;BME280;49099;28.428;-16.488;2023-03-23T12:37:59;98469.81;;;22.12;61.94
63009;BME280;49099;28.428;-16.488;2023-03-23T12:43:19;98471.81;;;22.27;62.40
63009;BME280;49099;28.428;-16.488;2023-03-23T12:48:16;98455.44;;;22.48;61.54
63009;BME280;49099;28.428;-16.488;2023-03-23T12:51:27;98461.81;;;22.56;61.84
63009;BME280;49099;28.428;-16.488;2023-03-23T12:53:58;98464.44;;;22.52;62.47
63009;BME280;49099;28.428;-16.488;2023-03-23T13:01:54;98488.34;;;22.38;62.68
63009;BME280;49099;28.428;-16.488;2023-03-23T13:04:44;98486.66;;;22.33;63.07
63009;BME280;49099;28.428;-16.488;2023-03-23T13:07:16;98479.47;;;22.25;63.94
63009;BME280;49099;28.428;-16.488;2023-03-23T13:09:48;98479.47;;;22.25;64.35
63009;BME280;49099;28.428;-16.488;2023-03-23T13:12:17;98477.31;;;22.31;63.92
63009;BME280;49099;28.428;-16.488;2023-03-23T13:14:54;98478.19;;;22.47;63.41
63009;BME280;49099;28.428;-16.488;2023-03-23T13:17:38;98471.97;;;22.59;63.31
63009;BME280;49099;28.428;-16.488;2023-03-23T13:25:54;98477.72;;;22.57;62.61
63009;BME280;49099;28.428;-16.488;2023-03-23T13:28:30;98488.63;;;22.48;62.72
63009;BME280;49099;28.428;-16.488;2023-03-23T13:33:31;98482.97;;;22.66;62.12
63009;BME280;49099;28.428;-16.488;2023-03-23T13:36:09;98485.22;;;22.64;61.92
63009;BME280;49099;28.428;-16.488;2023-03-23T13:38:36;98489.25;;;22.70;62.28
63009;BME280;49099;28.428;-16.488;2023-03-23T13:41:09;98492.41;;;22.72;62.11
63009;BME280;49099;28.428;-16.488;2023-03-23T13:43:37;98490.50;;;22.72;62.51
63009;BME280;49099;28.428;-16.488;2023-03-23T13:49:16;98487.47;;;22.74;62.16
63009;BME280;49099;28.428;-16.488;2023-03-23T13:57:03;98478.47;;;22.98;61.61
63009;BME280;49099;28.428;-16.488;2023-03-23T13:59:34;98467.06;;;23.04;61.38
63009;BME280;49099;28.428;-16.488;2023-03-23T14:08:00;98456.13;;;23.01;61.33
63009;BME280;49099;28.428;-16.488;2023-03-23T14:10:41;98449.06;;;22.96;61.13
63009;BME280;49099;28.428;-16.488;2023-03-23T14:13:31;98449.06;;;22.96;61.13
63009;BME280;49099;28.428;-16.488;2023-03-23T14:16:05;98455.78;;;23.02;61.01
63009;BME280;49099;28.428;-16.488;2023-03-23T14:18:40;98458.88;;;23.17;60.86
63009;BME280;49099;28.428;-16.488;2023-03-23T14:21:15;98452.78;;;23.20;61.00
63009;BME280;49099;28.428;-16.488;2023-03-23T14:23:42;98455.91;;;23.22;60.89
63009;BME280;49099;28.428;-16.488;2023-03-23T14:26:19;98453.28;;;23.25;60.84
63009;BME280;49099;28.428;-16.488;2023-03-23T14:28:51;98458.19;;;23.20;60.35
63009;BME280;49099;28.428;-16.488;2023-03-23T14:31:24;98453.44;;;23.17;61.00
63009;BME280;49099;28.428;-16.488;2023-03-23T14:33:52;98467.41;;;23.19;60.73
63009;BME280;49099;28.428;-16.488;2023-03-23T14:36:22;98468.50;;;23.30;60.43
63009;BME280;49099;28.428;-16.488;2023-03-23T14:39:00;98463.59;;;23.20;60.84
63009;BME280;49099;28.428;-16.488;2023-03-23T14:41:29;98465.84;;;23.18;61.02
63009;BME280;49099;28.428;-16.488;2023-03-23T14:43:56;98464.97;;;23.14;61.29
63009;BME280;49099;28.428;-16.488;2023-03-23T14:46:24;98462.13;;;23.38;60.08